createdAt,value
2022-11-26T00:02:24.552Z,9.23
2022-11-26T00:05:01.820Z,8.27
2022-11-26T00:07:36.135Z,8.37
2022-11-26T00:10:23.793Z,8.00
2022-11-26T00:12:52.902Z,8.53
2022-11-26T00:15:29.953Z,8.30
2022-11-26T00:18:16.824Z,9.27
2022-11-26T00:20:49.847Z,8.43
2022-11-26T00:23:28.352Z,8.90
2022-11-26T00:26:27.094Z,8.38
2022-11-26T00:31:53.866Z,7.63
2022-11-26T00:34:21.316Z,10.83
2022-11-26T00:37:05.685Z,8.43
2022-11-26T00:39:39.340Z,8.00
2022-11-26T00:42:12.536Z,7.87
2022-11-26T00:44:45.482Z,8.10
2022-11-26T00:47:27.708Z,8.13
2022-11-26T00:50:13.494Z,8.57
2022-11-26T00:52:44.490Z,9.10
2022-11-26T00:55:19.888Z,9.07
2022-11-26T00:57:53.724Z,7.53
2022-11-26T01:00:26.191Z,8.27
2022-11-26T01:02:57.870Z,8.43
2022-11-26T01:05:43.402Z,8.53
2022-11-26T01:08:36.256Z,8.73
2022-11-26T01:11:06.688Z,9.97
2022-11-26T01:13:38.390Z,8.77
2022-11-26T01:16:16.795Z,9.57
2022-11-26T01:18:55.111Z,8.93
2022-11-26T01:21:51.111Z,8.73
2022-11-26T01:24:25.095Z,10.00
2022-11-26T01:27:05.327Z,10.75
2022-11-26T01:29:46.295Z,7.67
2022-11-26T01:32:18.385Z,10.43
2022-11-26T01:34:52.479Z,9.80
2022-11-26T01:37:19.144Z,10.50
2022-11-26T01:42:38.315Z,11.70
2022-11-26T01:45:28.841Z,10.52
2022-11-26T01:48:06.379Z,11.00
2022-11-26T01:53:24.023Z,9.67
2022-11-26T01:56:02.232Z,12.13
2022-11-26T01:58:38.325Z,12.23
2022-11-26T02:01:06.765Z,12.77
2022-11-26T02:03:38.501Z,14.37
2022-11-26T02:06:08.804Z,13.93
2022-11-26T02:08:35.989Z,13.40
2022-11-26T02:11:16.162Z,12.40
2022-11-26T02:13:43.421Z,10.87
2022-11-26T02:16:20.212Z,11.87
2022-11-26T02:19:04.938Z,11.17
2022-11-26T02:21:35.114Z,13.17
2022-11-26T02:24:21.139Z,12.30
2022-11-26T02:27:12.829Z,11.93
2022-11-26T02:30:06.763Z,10.43
2022-11-26T02:32:50.209Z,11.03
2022-11-26T02:35:19.968Z,11.27
2022-11-26T02:37:49.679Z,11.53
2022-11-26T02:40:16.446Z,12.87
2022-11-26T02:42:43.004Z,12.30
2022-11-26T02:45:31.129Z,12.53
2022-11-26T02:48:00.611Z,11.27
2022-11-26T02:50:37.153Z,11.93
2022-11-26T02:53:05.664Z,12.93
2022-11-26T02:55:35.995Z,11.87
2022-11-26T02:58:03.776Z,10.63
2022-11-26T03:00:32.211Z,12.67
2022-11-26T03:03:26.193Z,11.47
2022-11-26T03:05:55.745Z,11.93
2022-11-26T03:08:22.813Z,14.87
2022-11-26T03:10:49.880Z,13.10
2022-11-26T03:13:16.508Z,13.87
2022-11-26T03:15:43.471Z,14.50
2022-11-26T03:18:10.045Z,14.03
2022-11-26T03:20:36.754Z,12.73
2022-11-26T03:23:03.455Z,14.57
2022-11-26T03:25:30.298Z,13.63
2022-11-26T03:27:56.930Z,13.07
2022-11-26T03:30:23.531Z,12.80
2022-11-26T03:32:50.208Z,13.47
2022-11-26T03:35:17.057Z,13.80
2022-11-26T03:37:43.798Z,14.07
2022-11-26T03:40:11.121Z,13.03
2022-11-26T03:42:37.736Z,13.63
2022-11-26T03:45:04.809Z,14.70
2022-11-26T03:47:31.417Z,13.90
2022-11-26T03:49:58.058Z,11.43
2022-11-26T03:52:24.641Z,13.17
2022-11-26T03:54:51.346Z,12.77
2022-11-26T03:57:18.009Z,13.73
2022-11-26T03:59:44.651Z,14.87
2022-11-26T04:02:11.228Z,13.77
2022-11-26T04:04:38.182Z,13.83
2022-11-26T04:07:05.125Z,12.70
2022-11-26T04:09:31.828Z,13.53
2022-11-26T04:11:58.406Z,16.10
2022-11-26T04:14:25.023Z,14.17
2022-11-26T04:16:51.695Z,14.77
2022-11-26T04:19:18.366Z,15.33
2022-11-26T04:21:44.986Z,14.87
2022-11-26T04:24:11.602Z,14.83
2022-11-26T04:26:38.361Z,14.37
2022-11-26T04:29:05.158Z,15.67
2022-11-26T04:31:32.002Z,13.27
2022-11-26T04:33:58.633Z,14.17
2022-11-26T04:36:25.282Z,13.57
2022-11-26T04:38:51.983Z,17.37
2022-11-26T04:41:18.607Z,15.00
2022-11-26T04:43:45.246Z,13.77
2022-11-26T04:46:11.906Z,14.33
2022-11-26T04:48:38.574Z,14.63
2022-11-26T04:51:05.388Z,15.03
2022-11-26T04:53:32.056Z,14.03
2022-11-26T04:55:58.931Z,13.83
2022-11-26T04:58:25.655Z,12.43
2022-11-26T05:00:52.449Z,13.40
2022-11-26T05:03:19.358Z,12.53
2022-11-26T05:05:47.140Z,13.00
2022-11-26T05:08:14.296Z,15.40
2022-11-26T05:10:40.951Z,14.20
2022-11-26T05:13:07.546Z,15.63
2022-11-26T05:15:34.204Z,14.57
2022-11-26T05:18:00.874Z,13.27
2022-11-26T05:20:27.529Z,13.73
2022-11-26T05:22:54.118Z,12.93
2022-11-26T05:25:20.771Z,13.93
2022-11-26T05:27:47.355Z,13.30
2022-11-26T05:30:14.292Z,14.53
2022-11-26T05:32:40.886Z,13.53
2022-11-26T05:35:07.878Z,13.07
2022-11-26T05:37:34.673Z,13.50
2022-11-26T05:40:01.586Z,14.90
2022-11-26T05:42:28.208Z,16.17
2022-11-26T05:44:54.775Z,15.57
2022-11-26T05:47:21.501Z,14.90
2022-11-26T05:49:48.315Z,14.53
2022-11-26T05:52:14.994Z,17.50
2022-11-26T05:54:41.899Z,15.67
2022-11-26T05:57:08.734Z,14.33
2022-11-26T05:59:35.391Z,16.23
2022-11-26T06:02:02.531Z,17.33
2022-11-26T06:04:29.384Z,13.47
2022-11-26T06:06:59.338Z,13.60
2022-11-26T06:09:26.569Z,15.60
2022-11-26T06:11:53.822Z,16.53
2022-11-26T06:14:20.827Z,15.37
2022-11-26T06:16:47.497Z,15.60
2022-11-26T06:19:14.586Z,16.57
2022-11-26T06:21:44.276Z,16.20
2022-11-26T06:24:11.380Z,16.63
2022-11-26T06:26:38.131Z,13.33
2022-11-26T06:29:04.767Z,15.73
2022-11-26T06:31:32.788Z,17.03
2022-11-26T06:33:59.395Z,15.40
2022-11-26T06:36:29.241Z,14.97
2022-11-26T06:38:56.090Z,17.03
2022-11-26T06:41:23.279Z,15.50
2022-11-26T06:43:50.003Z,14.40
2022-11-26T06:46:17.751Z,13.63
2022-11-26T06:48:44.514Z,14.63
2022-11-26T06:51:13.671Z,15.47
2022-11-26T06:53:41.151Z,16.10
2022-11-26T06:56:17.722Z,14.67
2022-11-26T06:58:46.810Z,17.73
2022-11-26T07:01:19.543Z,17.23
2022-11-26T07:03:46.772Z,15.97
2022-11-26T07:06:23.118Z,18.03
2022-11-26T07:08:50.310Z,21.47
2022-11-26T07:11:17.512Z,20.87
2022-11-26T07:13:44.253Z,18.83
2022-11-26T07:16:12.040Z,19.27
2022-11-26T07:18:38.938Z,16.30
2022-11-26T07:21:07.753Z,17.80
2022-11-26T07:23:37.857Z,17.03
2022-11-26T07:26:06.138Z,17.77
2022-11-26T07:28:33.797Z,18.93
2022-11-26T07:31:02.231Z,17.70
2022-11-26T07:33:29.194Z,17.63
2022-11-26T07:36:02.440Z,18.53
2022-11-26T07:38:29.638Z,18.63
2022-11-26T07:41:03.957Z,18.50
2022-11-26T07:43:30.837Z,18.37
2022-11-26T07:46:01.587Z,19.50
2022-11-26T07:48:29.864Z,19.33
2022-11-26T07:50:57.293Z,17.30
2022-11-26T07:53:24.177Z,16.47
2022-11-26T07:55:51.115Z,15.67
2022-11-26T07:58:17.826Z,16.10
2022-11-26T08:00:44.710Z,16.63
2022-11-26T08:03:11.543Z,16.27
2022-11-26T08:05:45.351Z,16.87
2022-11-26T08:08:12.868Z,15.35
2022-11-26T08:10:40.156Z,15.83
2022-11-26T08:13:06.863Z,14.03
2022-11-26T08:15:35.571Z,15.00
2022-11-26T08:18:02.304Z,16.07
2022-11-26T08:20:29.468Z,14.53
2022-11-26T08:22:56.521Z,13.03
2022-11-26T08:25:23.213Z,14.03
2022-11-26T08:27:50.149Z,17.27
2022-11-26T08:30:17.071Z,14.70
2022-11-26T08:32:43.846Z,15.10
2022-11-26T08:35:10.515Z,36.73
2022-11-26T08:37:37.264Z,33.63
2022-11-26T08:40:04.776Z,29.80
2022-11-26T08:42:31.598Z,15.30
2022-11-26T08:44:58.297Z,13.93
2022-11-26T08:47:25.037Z,12.43
2022-11-26T08:49:51.821Z,12.97
2022-11-26T08:52:18.531Z,13.40
2022-11-26T08:54:45.801Z,26.63
2022-11-26T08:57:12.663Z,12.13
2022-11-26T08:59:39.397Z,12.87
2022-11-26T09:02:06.085Z,12.63
2022-11-26T09:04:32.877Z,13.97
2022-11-26T09:06:59.511Z,8.47
2022-11-26T09:09:26.322Z,9.27
2022-11-26T09:11:57.844Z,8.77
2022-11-26T09:14:30.895Z,8.67
2022-11-26T09:16:58.266Z,8.33
2022-11-26T09:19:25.683Z,7.53
2022-11-26T09:21:52.461Z,6.27
2022-11-26T09:24:19.861Z,7.53
2022-11-26T09:26:48.481Z,7.27
2022-11-26T09:29:21.311Z,7.33
2022-11-26T09:32:22.053Z,6.00
2022-11-26T09:34:36.719Z,6.97
2022-11-26T09:37:03.821Z,7.60
2022-11-26T09:39:30.575Z,7.77
2022-11-26T09:42:09.437Z,7.90
2022-11-26T09:44:45.076Z,6.80
2022-11-26T09:47:16.471Z,8.57
2022-11-26T09:49:59.982Z,7.37
2022-11-26T09:52:30.819Z,6.30
2022-11-26T09:55:05.958Z,5.50
2022-11-26T09:57:41.137Z,6.40
2022-11-26T10:00:21.748Z,6.40
2022-11-26T10:02:48.395Z,6.67
2022-11-26T10:05:21.006Z,6.13
2022-11-26T10:08:03.239Z,6.80
2022-11-26T10:10:58.803Z,7.10
2022-11-26T10:13:58.771Z,7.07
2022-11-26T10:16:30.381Z,6.00
2022-11-26T10:19:13.624Z,5.63
2022-11-26T10:21:58.558Z,6.20
2022-11-26T10:24:35.252Z,6.07
2022-11-26T10:27:09.799Z,6.67
2022-11-26T10:29:44.619Z,5.90
2022-11-26T10:32:35.307Z,6.10
2022-11-26T10:35:02.147Z,6.40
2022-11-26T10:37:29.150Z,5.33
2022-11-26T10:40:18.827Z,6.07
2022-11-26T10:43:03.097Z,6.60
2022-11-26T10:45:43.450Z,5.90
2022-11-26T10:48:20.943Z,5.27
2022-11-26T10:51:21.172Z,5.20
2022-11-26T10:53:57.166Z,5.57
2022-11-26T10:56:36.389Z,4.72
2022-11-26T10:59:06.089Z,6.00
2022-11-26T11:01:36.761Z,4.63
2022-11-26T11:04:18.272Z,3.97
2022-11-26T11:06:44.885Z,4.57
2022-11-26T11:09:36.073Z,4.83
2022-11-26T11:12:11.844Z,5.70
2022-11-26T11:14:44.005Z,6.35
2022-11-26T11:17:31.967Z,4.80
2022-11-26T11:20:01.408Z,5.33
2022-11-26T11:22:28.321Z,4.80
2022-11-26T11:24:56.446Z,5.43
2022-11-26T11:27:35.779Z,5.35
2022-11-26T11:30:02.487Z,4.80
2022-11-26T11:32:34.306Z,4.63
2022-11-26T11:35:19.711Z,4.93
2022-11-26T11:37:54.734Z,4.33
2022-11-26T11:40:25.493Z,5.70
2022-11-26T11:42:58.795Z,4.67
2022-11-26T11:45:25.543Z,6.88
2022-11-26T11:47:56.587Z,5.95
2022-11-26T11:50:40.226Z,6.65
2022-11-26T11:53:21.381Z,4.90
2022-11-26T11:56:02.087Z,6.73
2022-11-26T11:58:58.078Z,5.22
2022-11-26T12:01:59.024Z,5.63
2022-11-26T12:04:51.945Z,6.33
2022-11-26T12:07:42.170Z,6.17
2022-11-26T12:10:24.774Z,8.63
2022-11-26T12:12:58.672Z,6.88
2022-11-26T12:15:39.865Z,7.10
2022-11-26T12:18:22.199Z,6.60
2022-11-26T12:21:17.340Z,5.93
2022-11-26T12:23:54.830Z,6.25
2022-11-26T12:29:30.289Z,6.37
2022-11-26T12:32:18.902Z,6.13
2022-11-26T12:35:00.622Z,6.60
2022-11-26T12:37:40.782Z,11.17
2022-11-26T12:40:19.828Z,9.93
2022-11-26T12:43:10.608Z,7.43
2022-11-26T12:45:47.008Z,5.70
2022-11-26T12:48:34.636Z,5.67
2022-11-26T12:51:14.289Z,4.77
2022-11-26T12:53:49.819Z,4.53
2022-11-26T12:56:42.108Z,4.35
2022-11-26T12:59:23.809Z,4.50
2022-11-26T13:01:51.230Z,4.27
2022-11-26T13:07:22.022Z,4.77
2022-11-26T13:10:11.109Z,5.00
2022-11-26T13:12:49.999Z,4.07
2022-11-26T13:15:37.202Z,4.63
2022-11-26T13:18:12.118Z,5.57
2022-11-26T13:21:09.647Z,4.77
2022-11-26T13:24:03.755Z,4.15
2022-11-26T13:26:56.910Z,4.40
2022-11-26T13:29:38.108Z,4.90
2022-11-26T13:32:42.456Z,4.63
2022-11-26T13:35:18.849Z,4.43
2022-11-26T13:38:07.929Z,4.37
2022-11-26T13:41:04.495Z,5.20
2022-11-26T13:44:06.846Z,4.60
2022-11-26T13:46:46.573Z,6.37
2022-11-26T13:49:26.469Z,6.53
2022-11-26T13:52:00.277Z,6.23
2022-11-26T13:54:40.023Z,6.47
2022-11-26T13:57:25.789Z,7.03
2022-11-26T13:59:54.059Z,5.70
2022-11-26T14:02:32.993Z,6.70
2022-11-26T14:05:01.368Z,5.57
2022-11-26T14:07:28.411Z,6.33
2022-11-26T14:09:57.631Z,6.57
2022-11-26T14:13:02.357Z,5.50
2022-11-26T14:15:41.346Z,6.45
2022-11-26T14:18:16.404Z,6.70
2022-11-26T14:20:59.698Z,7.67
2022-11-26T14:23:44.478Z,7.47
2022-11-26T14:26:39.658Z,6.60
2022-11-26T14:29:12.527Z,6.40
2022-11-26T14:31:54.908Z,5.63
2022-11-26T14:34:24.686Z,6.23
2022-11-26T14:37:01.946Z,5.80
2022-11-26T14:39:29.351Z,5.80
2022-11-26T14:42:03.775Z,5.50
2022-11-26T14:44:33.438Z,6.70
2022-11-26T14:47:08.752Z,5.70
2022-11-26T14:49:38.221Z,8.17
2022-11-26T14:52:13.986Z,7.33
2022-11-26T14:54:41.281Z,7.47
2022-11-26T14:57:21.420Z,6.17
2022-11-26T15:00:01.992Z,6.73
2022-11-26T15:02:30.611Z,6.13
2022-11-26T15:05:14.140Z,5.93
2022-11-26T15:07:40.820Z,5.80
2022-11-26T15:10:18.927Z,5.47
2022-11-26T15:12:47.458Z,5.53
2022-11-26T15:15:17.439Z,5.83
2022-11-26T15:17:47.160Z,6.13
2022-11-26T15:20:15.983Z,6.70
2022-11-26T15:22:48.183Z,6.87
2022-11-26T15:25:27.705Z,6.43
2022-11-26T15:28:04.214Z,6.57
2022-11-26T15:30:34.157Z,5.67
2022-11-26T15:33:13.323Z,6.73
2022-11-26T15:35:40.354Z,7.70
2022-11-26T15:38:16.002Z,7.00
2022-11-26T15:40:46.537Z,6.93
2022-11-26T15:43:39.172Z,6.00
2022-11-26T15:46:23.545Z,6.77
2022-11-26T15:48:54.221Z,7.75
2022-11-26T15:51:30.722Z,9.43
2022-11-26T15:54:01.950Z,10.70
2022-11-26T15:56:31.732Z,9.43
2022-11-26T15:59:00.475Z,8.27
2022-11-26T16:01:32.422Z,6.97
2022-11-26T16:04:04.523Z,6.10
2022-11-26T16:06:36.889Z,5.80
2022-11-26T16:09:11.540Z,6.63
2022-11-26T16:11:44.321Z,6.70
2022-11-26T16:14:31.623Z,8.67
2022-11-26T16:17:05.065Z,8.33
2022-11-26T16:19:35.048Z,9.17
2022-11-26T16:22:05.981Z,7.40
2022-11-26T16:24:39.131Z,8.70
2022-11-26T16:27:25.645Z,7.80
2022-11-26T16:29:52.477Z,9.47
2022-11-26T16:32:19.568Z,9.37
2022-11-26T16:34:46.287Z,9.00
2022-11-26T16:37:23.878Z,9.23
2022-11-26T16:39:53.272Z,9.60
2022-11-26T16:42:23.156Z,8.60
2022-11-26T16:44:50.262Z,7.57
2022-11-26T16:47:23.170Z,7.23
2022-11-26T16:49:49.939Z,8.10
2022-11-26T16:52:17.771Z,7.93
2022-11-26T16:54:44.431Z,11.10
2022-11-26T16:57:19.168Z,11.43
2022-11-26T16:59:50.228Z,9.97
2022-11-26T17:02:18.848Z,9.17
2022-11-26T17:04:45.726Z,10.30
2022-11-26T17:07:14.752Z,9.30
2022-11-26T17:09:42.317Z,10.03
2022-11-26T17:12:15.887Z,9.53
2022-11-26T17:14:43.220Z,8.02
2022-11-26T17:17:20.448Z,10.20
2022-11-26T17:19:50.536Z,8.67
2022-11-26T17:22:17.202Z,14.23
2022-11-26T17:24:43.966Z,18.33
2022-11-26T17:27:16.616Z,18.97
2022-11-26T17:29:44.567Z,18.27
2022-11-26T17:32:17.156Z,15.30
2022-11-26T17:34:44.873Z,12.53
2022-11-26T17:37:18.290Z,8.00
2022-11-26T17:39:44.950Z,9.02
2022-11-26T17:42:12.117Z,12.97
2022-11-26T17:44:38.911Z,9.77
2022-11-26T17:47:20.882Z,9.57
2022-11-26T17:49:48.120Z,30.40
2022-11-26T17:52:15.940Z,28.20
2022-11-26T17:54:43.638Z,12.70
2022-11-26T17:57:15.010Z,9.27
2022-11-26T17:59:42.174Z,9.53
2022-11-26T18:02:10.099Z,10.37
2022-11-26T18:04:37.297Z,10.23
2022-11-26T18:07:12.138Z,7.93
2022-11-26T18:09:39.587Z,9.87
2022-11-26T18:12:08.274Z,8.40
2022-11-26T18:14:37.778Z,9.03
2022-11-26T18:17:04.604Z,8.97
2022-11-26T18:19:31.273Z,11.43
2022-11-26T18:21:57.949Z,11.27
2022-11-26T18:24:24.810Z,12.00
2022-11-26T18:26:56.121Z,11.30
2022-11-26T18:29:24.136Z,11.77
2022-11-26T18:31:50.842Z,9.40
2022-11-26T18:34:17.453Z,8.73
2022-11-26T18:36:46.203Z,11.13
2022-11-26T18:39:15.561Z,15.90
2022-11-26T18:41:42.624Z,13.37
2022-11-26T18:44:09.662Z,12.57
2022-11-26T18:46:36.475Z,11.07
2022-11-26T18:49:03.344Z,9.67
2022-11-26T18:51:30.035Z,9.63
2022-11-26T18:53:56.654Z,11.17
2022-11-26T18:56:25.858Z,9.70
2022-11-26T18:58:52.738Z,12.17
2022-11-26T19:01:28.393Z,11.53
2022-11-26T19:03:56.365Z,11.73
2022-11-26T19:06:25.979Z,10.03
2022-11-26T19:08:58.019Z,11.57
2022-11-26T19:11:25.360Z,10.30
2022-11-26T19:13:52.222Z,10.57
2022-11-26T19:16:22.158Z,10.77
2022-11-26T19:18:49.072Z,11.03
2022-11-26T19:21:18.550Z,10.60
2022-11-26T19:23:45.316Z,11.87
2022-11-26T19:26:12.379Z,12.03
2022-11-26T19:28:39.044Z,9.93
2022-11-26T19:31:08.650Z,10.00
2022-11-26T19:33:35.382Z,10.67
2022-11-26T19:36:07.345Z,10.50
2022-11-26T19:38:34.355Z,11.80
2022-11-26T19:41:02.003Z,13.10
2022-11-26T19:43:30.606Z,11.20
2022-11-26T19:46:13.182Z,10.20
2022-11-26T19:48:42.684Z,10.83
2022-11-26T19:51:10.676Z,10.77
2022-11-26T19:53:37.872Z,11.00
2022-11-26T19:56:25.918Z,11.10
2022-11-26T19:58:57.883Z,9.87
2022-11-26T20:01:26.566Z,9.73
2022-11-26T20:03:53.251Z,10.20
2022-11-26T20:06:22.389Z,9.80
2022-11-26T20:08:49.537Z,10.23
2022-11-26T20:11:17.271Z,10.03
2022-11-26T20:13:44.891Z,11.13
2022-11-26T20:16:14.284Z,9.97
2022-11-26T20:18:41.296Z,10.73
2022-11-26T20:21:16.587Z,10.40
2022-11-26T20:23:43.274Z,9.67
2022-11-26T20:26:18.684Z,9.80
2022-11-26T20:28:45.682Z,10.93
2022-11-26T20:31:13.674Z,10.30
2022-11-26T20:33:41.014Z,14.07
2022-11-26T20:36:08.851Z,13.67
2022-11-26T20:38:36.285Z,11.03
2022-11-26T20:41:10.730Z,10.30
2022-11-26T20:43:38.224Z,10.40
2022-11-26T20:46:06.618Z,10.13
2022-11-26T20:48:34.809Z,11.33
2022-11-26T20:51:03.104Z,10.23
2022-11-26T20:53:30.017Z,11.57
2022-11-26T20:55:56.805Z,12.17
2022-11-26T20:58:24.230Z,11.67
2022-11-26T21:00:51.555Z,14.37
2022-11-26T21:03:18.228Z,12.67
2022-11-26T21:05:44.854Z,12.23
2022-11-26T21:08:11.449Z,12.50
2022-11-26T21:10:39.914Z,12.10
2022-11-26T21:13:07.594Z,11.93
2022-11-26T21:15:34.737Z,11.77
2022-11-26T21:18:01.860Z,10.33
2022-11-26T21:20:33.433Z,12.67
2022-11-26T21:23:02.858Z,12.25
2022-11-26T21:25:29.586Z,13.17
2022-11-26T21:27:56.325Z,13.63
2022-11-26T21:30:23.677Z,10.87
2022-11-26T21:32:50.758Z,12.53
2022-11-26T21:35:17.536Z,12.30
2022-11-26T21:37:44.180Z,12.27
2022-11-26T21:40:11.215Z,10.93
2022-11-26T21:42:37.948Z,12.47
2022-11-26T21:45:05.353Z,13.00
2022-11-26T21:47:31.964Z,11.90
2022-11-26T21:49:58.660Z,12.70
2022-11-26T21:52:25.417Z,13.77
2022-11-26T21:54:52.034Z,13.73
2022-11-26T21:57:18.674Z,13.97
2022-11-26T21:59:45.309Z,12.47
2022-11-26T22:02:12.535Z,14.47
2022-11-26T22:04:39.251Z,13.57
2022-11-26T22:07:05.960Z,14.67
2022-11-26T22:09:32.981Z,14.37
2022-11-26T22:11:59.566Z,10.97
2022-11-26T22:14:26.307Z,13.43
2022-11-26T22:16:53.342Z,12.43
2022-11-26T22:19:20.013Z,11.77
2022-11-26T22:21:46.648Z,12.67
2022-11-26T22:24:15.628Z,12.47
2022-11-26T22:26:43.241Z,12.50
2022-11-26T22:29:11.832Z,12.40
2022-11-26T22:31:39.118Z,12.60
2022-11-26T22:34:06.718Z,11.13
2022-11-26T22:36:33.935Z,11.90
2022-11-26T22:39:02.789Z,13.03
2022-11-26T22:41:29.460Z,12.07
2022-11-26T22:43:59.151Z,11.47
2022-11-26T22:46:25.857Z,12.00
2022-11-26T22:48:59.497Z,12.50
2022-11-26T22:51:29.682Z,10.95
2022-11-26T22:54:01.869Z,11.13
2022-11-26T22:56:28.911Z,11.10
2022-11-26T22:58:55.949Z,11.20
2022-11-26T23:01:25.836Z,10.37
2022-11-26T23:03:53.153Z,10.87
2022-11-26T23:06:21.738Z,10.37
2022-11-26T23:08:49.241Z,10.90
2022-11-26T23:11:22.071Z,10.07
2022-11-26T23:13:50.110Z,10.33
2022-11-26T23:16:18.809Z,10.43
2022-11-26T23:18:45.648Z,10.43
2022-11-26T23:21:17.829Z,8.90
2022-11-26T23:23:44.687Z,9.67
2022-11-26T23:26:17.095Z,12.20
2022-11-26T23:28:45.440Z,10.02
2022-11-26T23:31:20.482Z,9.97
2022-11-26T23:33:47.588Z,11.87
2022-11-26T23:36:14.777Z,10.47
2022-11-26T23:38:41.487Z,10.00
2022-11-26T23:41:08.542Z,10.37
2022-11-26T23:43:36.477Z,11.03
2022-11-26T23:46:25.631Z,10.37
2022-11-26T23:48:52.790Z,11.67
2022-11-26T23:51:30.805Z,9.90
2022-11-26T23:53:57.591Z,11.33
2022-11-26T23:56:29.640Z,10.70
2022-11-26T23:58:58.580Z,12.47
